Time;durP1;ratioP1;P1;durP2;ratioP2;P2;SDS_P1;SDS_P2;PMS_P1;PMS_P2;Temp;Humidity;BMP_temperature;BMP_pressure;BME280_temperature;BME280_humidity;BME280_pressure;Samples;Min_cycle;Max_cycle;Signal;HPM_P1;HPM_P2
2020/12/13 00:01:36;;;;;;;6.60;5.90;;;;;;;6.77;100.00;100189.50;5034614;28;20099;-65
2020/12/13 00:04:22;;;;;;;8.00;7.18;;;;;;;6.47;100.00;100190.66;5034920;28;20060;-66
2020/12/13 00:07:07;;;;;;;9.02;7.13;;;;;;;6.83;100.00;100197.25;5048445;28;20038;-66
2020/12/13 00:09:53;;;;;;;6.95;6.10;;;;;;;6.57;100.00;100199.25;5048619;28;20443;-65
2020/12/13 00:12:38;;;;;;;7.22;6.22;;;;;;;6.26;100.00;100196.06;5033979;28;20407;-64
2020/12/13 00:15:24;;;;;;;7.38;6.10;;;;;;;6.28;100.00;100206.47;5033817;28;20397;-65
2020/12/13 00:18:09;;;;;;;7.05;6.28;;;;;;;6.28;100.00;100216.88;5034246;28;20029;-65
2020/12/13 00:20:55;;;;;;;7.07;6.35;;;;;;;6.78;100.00;100214.66;5034181;28;20110;-65
2020/12/13 00:23:41;;;;;;;7.05;6.22;;;;;;;6.83;100.00;100200.72;5033864;28;20385;-64
2020/12/13 00:26:26;;;;;;;8.50;6.60;;;;;;;7.10;100.00;100203.00;5033951;28;20040;-65
2020/12/13 00:29:13;;;;;;;8.27;7.05;;;;;;;6.84;100.00;100205.06;5034501;28;20099;-65
2020/12/13 00:31:58;;;;;;;9.05;7.78;;;;;;;6.71;100.00;100218.22;5033724;28;20377;-66
2020/12/13 00:34:43;;;;;;;8.40;6.93;;;;;;;5.79;100.00;100218.91;5033846;28;20453;-65
2020/12/13 00:37:29;;;;;;;7.50;6.72;;;;;;;6.54;100.00;100226.16;5033813;28;20426;-66
2020/12/13 00:40:14;;;;;;;7.30;6.53;;;;;;;6.37;100.00;100233.25;5047821;28;20033;-64
2020/12/13 00:43:00;;;;;;;8.40;7.50;;;;;;;6.93;100.00;100240.53;5047424;28;20025;-65
2020/12/13 00:45:45;;;;;;;6.72;6.03;;;;;;;6.50;100.00;100232.28;5033560;28;20041;-65
2020/12/13 00:48:30;;;;;;;7.25;6.50;;;;;;;6.91;100.00;100231.88;5033751;28;20053;-65
2020/12/13 00:51:25;;;;;;;8.63;6.57;;;;;;;7.16;100.00;100220.31;5033479;28;20037;-65
2020/12/13 00:54:11;;;;;;;8.52;7.50;;;;;;;7.40;100.00;100235.66;5033359;28;20041;-65
2020/12/13 00:56:56;;;;;;;8.50;7.30;;;;;;;6.82;100.00;100231.97;5033522;28;20054;-64
2020/12/13 00:59:42;;;;;;;9.00;7.57;;;;;;;6.67;100.00;100232.13;5033576;28;20120;-65
2020/12/13 01:02:27;;;;;;;9.05;7.60;;;;;;;6.57;100.00;100233.06;5032786;28;20524;-65
2020/12/13 01:05:12;;;;;;;8.55;6.88;;;;;;;6.14;100.00;100240.38;5033401;28;20033;-65
2020/12/13 01:07:58;;;;;;;10.15;7.88;;;;;;;6.86;100.00;100231.94;5033278;28;20465;-66
2020/12/13 01:10:43;;;;;;;9.70;7.60;;;;;;;6.97;100.00;100243.09;5033282;28;20103;-64
2020/12/13 01:13:29;;;;;;;9.10;7.88;;;;;;;7.02;100.00;100250.84;5033068;28;20099;-65
2020/12/13 01:16:16;;;;;;;9.35;7.40;;;;;;;6.33;100.00;100248.91;5033013;28;20045;-65
2020/12/13 01:19:02;;;;;;;9.07;7.68;;;;;;;7.08;100.00;100250.78;5033288;28;20041;-65
2020/12/13 01:21:48;;;;;;;9.90;8.52;;;;;;;6.77;100.00;100250.25;5032856;28;20099;-66
2020/12/13 01:24:33;;;;;;;10.40;8.75;;;;;;;7.36;100.00;100241.78;5033038;28;20029;-65
2020/12/13 01:27:19;;;;;;;9.82;7.82;;;;;;;6.46;100.00;100243.59;5032179;28;20065;-65
2020/12/13 01:30:08;;;;;;;10.75;8.25;;;;;;;6.64;100.00;100240.84;5032890;28;20037;-65
2020/12/13 01:32:54;;;;;;;11.02;9.23;;;;;;;7.35;100.00;100243.50;5032537;28;20029;-65
2020/12/13 01:35:39;;;;;;;11.82;9.18;;;;;;;7.07;100.00;100233.44;5032802;28;20041;-65
2020/12/13 01:38:25;;;;;;;11.85;9.35;;;;;;;6.73;100.00;100238.16;5032713;28;20505;-65
2020/12/13 01:41:11;;;;;;;13.38;9.82;;;;;;;7.06;100.00;100237.78;5032738;28;20029;-66
2020/12/13 01:44:05;;;;;;;12.48;9.60;;;;;;;6.58;100.00;100230.47;5032753;28;20488;-65
2020/12/13 01:46:50;;;;;;;8.63;7.72;;;;;;;7.05;100.00;100238.69;5032243;28;20445;-64
2020/12/13 01:49:42;;;;;;;10.70;9.32;;;;;;;7.21;100.00;100234.16;5032692;28;20083;-65
2020/12/13 01:52:46;;;;;;;10.57;8.55;;;;;;;7.07;100.00;100241.28;5032444;28;20361;-65
2020/12/13 01:55:32;;;;;;;11.40;9.35;;;;;;;7.55;100.00;100243.28;5032675;28;20107;-64
2020/12/13 01:58:28;;;;;;;10.25;8.82;;;;;;;7.62;100.00;100247.50;5032695;28;20343;-65
2020/12/13 02:01:15;;;;;;;11.32;9.43;;;;;;;7.67;100.00;100253.56;5032240;28;20029;-65
2020/12/13 02:04:01;;;;;;;12.70;10.05;;;;;;;7.16;100.00;100259.38;5032599;28;20497;-64
2020/12/13 02:06:52;;;;;;;11.18;8.80;;;;;;;7.20;100.00;100255.88;5046314;28;20073;-65
2020/12/13 02:09:38;;;;;;;10.82;8.73;;;;;;;7.01;100.00;100256.94;5032594;28;20083;-65
2020/12/13 02:12:24;;;;;;;10.80;8.95;;;;;;;7.21;100.00;100252.38;5032291;28;20034;-65
2020/12/13 02:15:11;;;;;;;12.38;9.73;;;;;;;6.97;100.00;100257.84;5032361;28;20172;-65
2020/12/13 02:17:56;;;;;;;11.43;10.00;;;;;;;7.03;100.00;100252.59;5032148;28;20033;-65
2020/12/13 02:20:41;;;;;;;8.85;7.75;;;;;;;7.11;100.00;100254.22;5046134;28;20117;-65
2020/12/13 02:23:29;;;;;;;9.55;8.13;;;;;;;7.16;100.00;100248.97;5036578;28;20045;-65
2020/12/13 02:26:15;;;;;;;12.48;8.50;;;;;;;7.34;100.00;100253.94;5041833;28;20120;-65
2020/12/13 02:29:01;;;;;;;11.73;9.75;;;;;;;7.52;100.00;100253.75;5040193;28;20039;-66
2020/12/13 02:31:46;;;;;;;11.25;9.40;;;;;;;7.14;100.00;100250.72;5037926;28;20072;-65
2020/12/13 02:34:32;;;;;;;13.40;10.40;;;;;;;6.93;100.00;100267.44;5039232;28;20121;-64
2020/12/13 02:37:17;;;;;;;12.13;10.10;;;;;;;7.11;100.00;100266.41;5049982;28;20037;-65
2020/12/13 02:40:04;;;;;;;12.82;10.23;;;;;;;7.14;100.00;100262.00;5050683;28;20045;-65
2020/12/13 02:42:50;;;;;;;14.73;11.15;;;;;;;6.80;100.00;100276.25;5023671;28;20108;-66
2020/12/13 02:45:35;;;;;;;17.23;12.32;;;;;;;7.51;100.00;100270.28;5049725;28;20120;-65
2020/12/13 02:48:21;;;;;;;15.90;11.57;;;;;;;6.96;100.00;100277.84;5049991;28;20033;-64
2020/12/13 02:51:07;;;;;;;16.88;12.48;;;;;;;6.84;100.00;100283.16;5035561;28;20087;-65
2020/12/13 02:53:52;;;;;;;19.25;13.68;;;;;;;6.80;100.00;100291.88;5035658;28;20072;-65
2020/12/13 02:56:41;;;;;;;17.48;12.35;;;;;;;7.22;100.00;100280.16;5035716;28;20036;-65
2020/12/13 02:59:26;;;;;;;15.68;11.80;;;;;;;7.63;100.00;100270.13;5035879;28;20114;-66
2020/12/13 03:02:12;;;;;;;15.43;11.85;;;;;;;7.34;100.00;100273.06;5034300;28;20509;-66
2020/12/13 03:04:57;;;;;;;15.27;12.35;;;;;;;7.69;100.00;100275.25;5021973;28;20400;-66
2020/12/13 03:07:43;;;;;;;12.02;8.68;;;;;;;6.74;100.00;100268.50;5035645;28;20095;-65
2020/12/13 03:10:28;;;;;;;11.07;9.02;;;;;;;6.91;100.00;100282.22;5035591;28;20041;-66
2020/12/13 03:13:13;;;;;;;13.48;10.40;;;;;;;6.70;100.00;100289.34;5021712;28;20046;-65
2020/12/13 03:15:59;;;;;;;14.45;10.82;;;;;;;6.66;100.00;100272.91;5021257;28;20052;-65
2020/12/13 03:18:44;;;;;;;14.40;11.38;;;;;;;7.31;100.00;100277.47;5035627;28;20114;-65
2020/12/13 03:21:31;;;;;;;12.05;9.93;;;;;;;7.43;100.00;100285.13;5021535;28;20033;-65
2020/12/13 03:24:16;;;;;;;11.43;9.20;;;;;;;7.20;100.00;100289.75;5035385;28;20119;-66
2020/12/13 03:27:02;;;;;;;13.13;10.43;;;;;;;7.47;100.00;100292.03;5035122;28;20091;-66
2020/12/13 03:29:47;;;;;;;13.73;10.23;;;;;;;7.06;100.00;100299.41;5035264;28;20036;-65
2020/12/13 03:32:35;;;;;;;12.93;10.27;;;;;;;6.49;100.00;100286.94;5034660;28;20029;-65
2020/12/13 03:35:21;;;;;;;12.25;9.75;;;;;;;6.95;100.00;100293.47;5035086;28;20065;-64
2020/12/13 03:38:06;;;;;;;12.50;10.43;;;;;;;6.49;100.00;100300.81;5034939;28;20509;-65
2020/12/13 03:40:52;;;;;;;13.07;10.45;;;;;;;7.12;100.00;100305.44;5034881;28;20037;-65
2020/12/13 03:43:37;;;;;;;11.18;9.57;;;;;;;7.39;100.00;100294.72;5035201;28;20029;-64
2020/12/13 03:46:22;;;;;;;13.38;11.25;;;;;;;7.21;100.00;100296.66;5020678;28;20029;-65
2020/12/13 03:49:08;;;;;;;13.20;10.63;;;;;;;7.34;100.00;100295.66;5034901;28;20068;-66
2020/12/13 03:51:54;;;;;;;12.07;9.68;;;;;;;7.16;100.00;100296.69;5033902;28;20040;-64
2020/12/13 03:54:39;;;;;;;11.43;9.30;;;;;;;7.22;100.00;100299.25;5021059;28;20033;-65
2020/12/13 03:57:24;;;;;;;12.38;9.65;;;;;;;6.77;100.00;100302.31;5034561;28;20029;-65
2020/12/13 04:00:10;;;;;;;12.23;9.70;;;;;;;6.93;100.00;100318.66;5034687;28;20373;-65
2020/12/13 04:02:56;;;;;;;8.55;7.40;;;;;;;6.34;100.00;100311.31;5034438;28;20044;-65
2020/12/13 04:05:41;;;;;;;10.93;8.00;;;;;;;6.52;100.00;100316.41;5048300;28;20037;-66
2020/12/13 04:08:26;;;;;;;9.95;8.77;;;;;;;6.85;100.00;100329.16;5034686;28;20036;-66
2020/12/13 04:11:12;;;;;;;12.20;10.13;;;;;;;7.00;100.00;100333.34;5034295;28;20044;-65
2020/12/13 04:13:57;;;;;;;12.80;10.73;;;;;;;6.94;100.00;100326.44;5020565;28;20045;-65
2020/12/13 04:16:44;;;;;;;13.43;10.25;;;;;;;6.61;100.00;100328.47;5047527;28;20476;-66
2020/12/13 04:19:31;;;;;;;14.13;10.23;;;;;;;6.54;100.00;100332.88;5020597;28;20045;-66
2020/12/13 04:22:17;;;;;;;13.15;10.38;;;;;;;6.91;100.00;100336.03;5047655;28;20049;-65
2020/12/13 04:25:03;;;;;;;12.98;10.20;;;;;;;6.80;100.00;100330.06;5020608;28;20048;-65
2020/12/13 04:27:49;;;;;;;12.07;9.18;;;;;;;6.78;100.00;100329.19;5034145;28;20061;-65
2020/12/13 04:30:34;;;;;;;12.85;10.50;;;;;;;6.94;100.00;100336.88;5033922;28;20056;-65
2020/12/13 04:33:20;;;;;;;11.98;10.15;;;;;;;6.39;100.00;100337.31;5048039;28;20138;-65
2020/12/13 04:36:06;;;;;;;12.30;10.65;;;;;;;6.89;100.00;100337.78;5047779;28;20352;-64
2020/12/13 04:38:51;;;;;;;13.40;10.80;;;;;;;7.01;100.00;100335.94;5047994;28;20029;-64
2020/12/13 04:41:37;;;;;;;14.30;11.68;;;;;;;6.68;100.00;100333.63;5047589;28;20088;-65
2020/12/13 04:44:23;;;;;;;14.02;10.82;;;;;;;7.00;100.00;100331.63;5034076;28;20090;-64
2020/12/13 04:47:09;;;;;;;14.75;11.25;;;;;;;6.83;100.00;100337.84;5047000;28;20491;-65
2020/12/13 04:49:55;;;;;;;13.30;10.95;;;;;;;6.50;100.00;100335.50;5020189;28;20178;-65
2020/12/13 04:52:42;;;;;;;12.68;10.82;;;;;;;6.18;100.00;100340.91;5033206;28;20563;-65
2020/12/13 04:55:29;;;;;;;14.98;10.77;;;;;;;6.65;100.00;100341.47;5047651;28;20045;-65
2020/12/13 04:58:15;;;;;;;12.35;10.15;;;;;;;7.05;100.00;100339.38;5033797;28;20033;-65
2020/12/13 05:01:04;;;;;;;13.90;11.00;;;;;;;7.06;100.00;100338.47;5019526;28;20037;-66
2020/12/13 05:03:50;;;;;;;14.30;11.38;;;;;;;6.68;100.00;100343.19;5033569;28;20021;-65
2020/12/13 05:06:36;;;;;;;13.23;10.88;;;;;;;7.07;100.00;100327.22;5033262;28;20457;-65
2020/12/13 05:09:21;;;;;;;11.30;9.00;;;;;;;6.59;100.00;100327.63;5033813;28;20453;-66
2020/12/13 05:12:08;;;;;;;13.27;10.93;;;;;;;6.09;100.00;100327.09;5033162;28;20040;-65
2020/12/13 05:14:53;;;;;;;14.95;11.35;;;;;;;6.51;100.00;100338.09;5033481;28;20472;-65
2020/12/13 05:17:38;;;;;;;13.68;10.73;;;;;;;6.64;100.00;100328.47;5033103;28;20099;-65
2020/12/13 05:20:24;;;;;;;13.07;10.80;;;;;;;6.49;100.00;100338.97;5033383;28;20029;-65
2020/12/13 05:23:09;;;;;;;14.60;11.20;;;;;;;6.65;100.00;100338.84;5032904;28;20045;-65
2020/12/13 05:25:55;;;;;;;13.45;10.82;;;;;;;6.53;100.00;100341.56;5033221;28;20056;-65
2020/12/13 05:28:46;;;;;;;12.73;10.60;;;;;;;6.48;100.00;100337.25;5033225;28;20078;-65
2020/12/13 05:31:40;;;;;;;13.85;11.23;;;;;;;6.84;100.00;100337.84;5018889;28;20044;-66
2020/12/13 05:34:25;;;;;;;14.43;11.30;;;;;;;6.82;100.00;100336.09;5033074;28;20072;-65
2020/12/13 05:37:15;;;;;;;15.05;11.27;;;;;;;6.83;100.00;100351.72;5032896;28;20042;-65
2020/12/13 05:40:07;;;;;;;16.55;13.15;;;;;;;7.00;100.00;100356.78;5033100;28;20099;-65
2020/12/13 05:42:59;;;;;;;17.30;13.20;;;;;;;6.46;100.00;100350.28;5034682;28;20456;-64
2020/12/13 05:52:00;;;;;;;17.73;13.90;;;;;;;6.78;100.00;100365.63;5028323;28;20049;-65
2020/12/13 05:54:46;;;;;;;23.63;14.43;;;;;;;6.45;100.00;100374.56;5033141;28;20099;-65
2020/12/13 05:57:33;;;;;;;16.85;13.70;;;;;;;7.00;100.00;100378.50;5032651;28;20057;-64
2020/12/13 06:00:18;;;;;;;20.80;15.55;;;;;;;6.43;100.00;100376.31;5032624;28;20339;-65
2020/12/13 06:03:05;;;;;;;22.45;15.40;;;;;;;6.40;100.00;100375.47;5032550;28;20033;-65
2020/12/13 06:05:54;;;;;;;20.00;15.27;;;;;;;6.42;100.00;100382.38;5032354;28;20036;-66
2020/12/13 06:09:15;;;;;;;24.70;16.02;;;;;;;6.54;100.00;100387.50;5018870;28;20106;-65
2020/12/13 06:12:10;;;;;;;22.77;16.55;;;;;;;6.72;100.00;100389.13;5032149;28;20048;-65
2020/12/13 06:14:59;;;;;;;22.88;15.18;;;;;;;6.67;100.00;100396.97;5035106;28;20481;-66
2020/12/13 06:17:45;;;;;;;21.10;15.88;;;;;;;6.58;100.00;100403.97;5022362;28;20468;-65
2020/12/13 06:20:32;;;;;;;27.70;18.73;;;;;;;7.04;100.00;100403.63;5022835;28;20339;-66
2020/12/13 06:23:19;;;;;;;25.73;18.95;;;;;;;6.90;100.00;100407.19;5036147;28;20108;-65
2020/12/13 06:26:05;;;;;;;23.10;17.38;;;;;;;6.60;100.00;100418.72;5036126;28;20041;-65
2020/12/13 06:28:52;;;;;;;23.95;17.65;;;;;;;6.74;100.00;100416.88;5050208;28;20037;-65
2020/12/13 06:31:39;;;;;;;26.65;18.65;;;;;;;6.49;100.00;100423.13;5035561;28;20446;-65
2020/12/13 06:34:25;;;;;;;26.30;18.20;;;;;;;6.30;100.00;100423.22;5022358;28;20033;-65
2020/12/13 06:37:12;;;;;;;25.33;18.42;;;;;;;6.80;100.00;100432.47;5036126;28;20056;-65
2020/12/13 06:39:58;;;;;;;25.65;18.00;;;;;;;6.04;100.00;100445.88;5035961;28;20505;-65
2020/12/13 06:42:44;;;;;;;28.17;18.50;;;;;;;5.90;100.00;100458.06;5022164;28;20033;-65
2020/12/13 06:45:30;;;;;;;24.38;18.33;;;;;;;6.48;100.00;100449.13;5049644;28;20033;-65
2020/12/13 06:48:34;;;;;;;26.27;18.25;;;;;;;6.37;100.00;100453.53;5049960;28;20136;-65
2020/12/13 06:51:27;;;;;;;24.60;18.42;;;;;;;6.33;100.00;100441.41;5021869;28;20418;-64
2020/12/13 06:54:18;;;;;;;22.73;17.15;;;;;;;6.93;100.00;100454.94;5035669;28;20025;-66
2020/12/13 06:57:08;;;;;;;22.10;16.35;;;;;;;6.58;100.00;100461.22;5046269;28;20365;-65
2020/12/13 06:59:54;;;;;;;24.20;17.67;;;;;;;6.56;100.00;100458.66;5035735;28;20393;-64
2020/12/13 07:03:00;;;;;;;20.77;16.15;;;;;;;6.71;100.00;100461.13;5035333;28;20108;-66
2020/12/13 07:05:54;;;;;;;23.55;17.73;;;;;;;6.98;100.00;100465.31;5035390;28;20473;-65
2020/12/13 07:08:41;;;;;;;24.10;18.70;;;;;;;6.72;100.00;100460.28;5035955;28;20443;-64
2020/12/13 07:11:29;;;;;;;22.35;17.42;;;;;;;6.73;100.00;100462.00;5035488;28;20040;-65
2020/12/13 07:14:16;;;;;;;26.13;19.58;;;;;;;6.36;100.00;100457.88;5021859;28;20038;-66
2020/12/13 07:17:05;;;;;;;27.23;20.98;;;;;;;6.56;100.00;100463.84;5021426;28;20417;-66
2020/12/13 07:19:55;;;;;;;33.13;23.23;;;;;;;6.62;100.00;100470.75;5035596;28;20120;-67
2020/12/13 07:22:40;;;;;;;29.33;22.55;;;;;;;7.24;100.00;100466.81;5034799;28;20123;-65
2020/12/13 07:25:26;;;;;;;30.25;21.73;;;;;;;6.41;100.00;100470.84;5034006;28;20044;-65
2020/12/13 07:28:11;;;;;;;27.58;20.35;;;;;;;6.67;100.00;100477.66;5035251;28;20400;-65
2020/12/13 07:31:02;;;;;;;29.38;21.23;;;;;;;6.88;100.00;100481.88;5021075;28;20409;-65
2020/12/13 07:33:48;;;;;;;28.35;21.27;;;;;;;7.13;100.00;100486.91;5034988;28;20033;-65
2020/12/13 07:36:34;;;;;;;26.15;19.65;;;;;;;7.26;100.00;100488.53;5021256;28;20135;-65
2020/12/13 07:39:20;;;;;;;25.23;18.98;;;;;;;6.84;100.00;100501.00;5021801;28;20044;-65
2020/12/13 07:42:09;;;;;;;23.42;18.05;;;;;;;7.33;100.00;100499.78;5034636;28;20527;-66
2020/12/13 07:44:58;;;;;;;27.63;19.52;;;;;;;6.98;100.00;100494.81;5034842;28;20041;-65
2020/12/13 07:47:48;;;;;;;31.33;21.85;;;;;;;6.81;100.00;100496.69;5034801;28;20362;-66
2020/12/13 07:50:45;;;;;;;30.58;23.58;;;;;;;7.19;100.00;100509.47;5034861;28;20033;-65
2020/12/13 07:53:31;;;;;;;33.30;23.88;;;;;;;7.14;100.00;100511.19;5034528;28;20121;-65
2020/12/13 07:56:25;;;;;;;32.55;24.15;;;;;;;7.23;100.00;100511.16;5034472;28;20048;-65
2020/12/13 07:59:13;;;;;;;35.30;24.98;;;;;;;7.18;100.00;100521.59;5048560;28;20041;-65
2020/12/13 08:01:58;;;;;;;38.42;25.20;;;;;;;7.06;100.00;100523.41;5020425;28;20076;-65
2020/12/13 08:04:44;;;;;;;31.92;21.15;;;;;;;6.93;100.00;100519.16;5034378;28;20022;-65
2020/12/13 08:07:30;;;;;;;27.48;20.00;;;;;;;7.05;100.00;100519.09;5034114;28;20045;-65
2020/12/13 08:10:17;;;;;;;29.10;20.83;;;;;;;6.30;100.00;100522.94;5048176;28;20500;-64
2020/12/13 08:13:07;;;;;;;27.60;18.05;;;;;;;6.76;100.00;100527.09;5033985;28;20449;-66
2020/12/13 08:16:01;;;;;;;28.05;19.95;;;;;;;6.96;100.00;100535.66;5033776;28;20453;-66
2020/12/13 08:18:49;;;;;;;27.85;20.00;;;;;;;7.27;100.00;100542.38;5020573;28;20047;-64
2020/12/13 08:22:02;;;;;;;24.55;17.83;;;;;;;7.23;100.00;100537.22;5047967;28;20339;-65
2020/12/13 08:25:06;;;;;;;25.00;17.65;;;;;;;7.42;100.00;100530.97;5048050;28;20050;-64
2020/12/13 08:27:56;;;;;;;23.77;17.60;;;;;;;7.76;100.00;100527.22;5033906;28;20065;-65
2020/12/13 08:30:42;;;;;;;23.45;17.15;;;;;;;7.91;100.00;100525.31;5047839;28;20393;-66
2020/12/13 08:33:27;;;;;;;23.38;16.83;;;;;;;7.63;100.00;100525.59;5033906;28;20033;-65
2020/12/13 08:36:17;;;;;;;27.92;18.13;;;;;;;6.58;100.00;100528.88;5019692;28;20041;-65
2020/12/13 08:39:09;;;;;;;24.08;18.27;;;;;;;7.81;100.00;100525.41;5020227;28;20037;-65
2020/12/13 08:41:55;;;;;;;28.27;19.77;;;;;;;7.18;100.00;100531.16;5020556;28;20037;-66
2020/12/13 08:44:42;;;;;;;22.00;17.02;;;;;;;7.69;100.00;100541.19;5033711;28;20041;-65
2020/12/13 08:47:32;;;;;;;23.92;16.83;;;;;;;7.32;100.00;100540.59;5019923;28;20040;-65
2020/12/13 08:50:18;;;;;;;23.75;17.02;;;;;;;7.73;100.00;100537.66;5047493;28;20424;-65
2020/12/13 08:53:22;;;;;;;23.48;17.20;;;;;;;7.35;100.00;100537.13;5019672;28;20033;-66
2020/12/13 08:56:09;;;;;;;28.33;18.73;;;;;;;7.44;100.00;100531.84;5033319;28;20095;-65
2020/12/13 08:58:57;;;;;;;22.45;16.70;;;;;;;7.60;100.00;100530.84;5019924;28;20044;-66
2020/12/13 09:01:52;;;;;;;23.88;16.83;;;;;;;7.74;100.00;100524.63;5033694;28;20128;-65
2020/12/13 09:04:37;;;;;;;18.20;13.77;;;;;;;7.99;100.00;100520.88;5034214;28;20039;-65
2020/12/13 09:07:24;;;;;;;18.75;12.63;;;;;;;7.99;100.00;100523.50;5033940;28;20041;-65
2020/12/13 09:10:09;;;;;;;17.60;12.73;;;;;;;8.38;100.00;100520.50;5019990;28;20040;-65
2020/12/13 09:12:54;;;;;;;14.15;10.90;;;;;;;7.80;100.00;100514.13;5033761;28;20040;-65
2020/12/13 09:15:40;;;;;;;11.38;9.25;;;;;;;7.70;100.00;100520.31;5019188;28;20029;-65
2020/12/13 09:18:25;;;;;;;13.27;9.88;;;;;;;7.43;100.00;100517.94;5033000;28;20118;-65
2020/12/13 09:21:13;;;;;;;13.80;10.52;;;;;;;8.02;100.00;100522.59;5032982;28;20041;-65
2020/12/13 09:23:59;;;;;;;14.18;10.20;;;;;;;7.54;100.00;100523.94;5018822;28;20053;-65
2020/12/13 09:27:05;;;;;;;14.27;11.43;;;;;;;7.51;100.00;100521.34;5032888;28;20076;-65
2020/12/13 09:29:51;;;;;;;13.02;9.65;;;;;;;7.48;100.00;100521.34;5032887;28;20037;-66
2020/12/13 09:32:36;;;;;;;15.25;10.30;;;;;;;6.98;100.00;100525.19;5032659;28;20112;-65
2020/12/13 09:35:22;;;;;;;12.68;9.48;;;;;;;7.60;100.00;100523.84;5032920;28;20045;-64
2020/12/13 09:38:09;;;;;;;11.88;9.05;;;;;;;7.91;100.00;100522.72;5032858;28;20041;-64
2020/12/13 09:40:55;;;;;;;13.13;10.38;;;;;;;8.04;100.00;100531.28;5032581;28;20039;-64
2020/12/13 09:43:40;;;;;;;10.80;8.38;;;;;;;7.15;100.00;100528.59;5032898;28;20071;-64
2020/12/13 09:46:25;;;;;;;10.50;8.70;;;;;;;7.87;100.00;100530.56;5032233;28;20052;-65
2020/12/13 09:49:11;;;;;;;8.75;7.45;;;;;;;7.65;100.00;100529.91;5018327;28;20073;-65
2020/12/13 09:52:02;;;;;;;17.17;9.90;;;;;;;7.32;100.00;100522.34;5032619;28;20072;-64
2020/12/13 09:54:47;;;;;;;14.80;11.82;;;;;;;7.46;100.00;100535.28;5032359;28;20044;-65
2020/12/13 09:57:33;;;;;;;14.40;11.63;;;;;;;7.04;100.00;100526.06;5032502;28;20112;-65
2020/12/13 10:00:18;;;;;;;12.90;9.82;;;;;;;7.61;100.00;100520.41;5032329;28;20107;-66
2020/12/13 10:03:03;;;;;;;10.57;7.70;;;;;;;8.09;100.00;100519.94;5032658;28;20036;-65
2020/12/13 10:06:11;;;;;;;11.77;7.88;;;;;;;7.85;100.00;100516.69;5032281;28;20085;-65
2020/12/13 10:09:10;;;;;;;10.75;8.60;;;;;;;8.35;100.00;100502.25;5032541;28;20029;-65
2020/12/13 10:11:56;;;;;;;10.02;7.60;;;;;;;8.35;100.00;100499.63;5032480;28;20056;-65
2020/12/13 10:14:41;;;;;;;8.60;6.75;;;;;;;8.31;100.00;100499.69;5032270;28;20044;-66
2020/12/13 10:17:28;;;;;;;14.13;9.38;;;;;;;8.35;100.00;100502.25;5032531;28;20369;-65
2020/12/13 10:20:13;;;;;;;12.10;9.57;;;;;;;8.00;100.00;100493.91;5032579;28;20442;-65
2020/12/13 10:22:58;;;;;;;10.25;8.38;;;;;;;7.97;100.00;100499.19;5032004;28;20492;-65
2020/12/13 10:25:47;;;;;;;10.40;7.88;;;;;;;7.84;100.00;100481.91;5045910;28;20361;-65
2020/12/13 10:28:32;;;;;;;10.02;7.40;;;;;;;8.05;100.00;100481.72;5032490;28;20361;-65
2020/12/13 10:31:19;;;;;;;9.30;6.93;;;;;;;7.72;100.00;100492.47;5031820;28;20044;-65
2020/12/13 10:34:06;;;;;;;9.77;7.30;;;;;;;7.92;100.00;100492.28;5032130;28;20056;-66
2020/12/13 10:36:54;;;;;;;12.20;7.82;;;;;;;7.60;100.00;100483.91;5032337;28;20033;-65
2020/12/13 10:39:39;;;;;;;9.48;7.32;;;;;;;8.20;100.00;100491.94;5032287;28;20040;-64
2020/12/13 10:42:25;;;;;;;10.43;7.72;;;;;;;7.52;100.00;100498.75;5045965;28;20041;-65
2020/12/13 10:45:10;;;;;;;11.07;8.23;;;;;;;8.01;100.00;100494.78;5032016;28;20381;-66
2020/12/13 10:47:56;;;;;;;11.52;7.93;;;;;;;8.36;100.00;100492.69;5032139;28;20045;-66
2020/12/13 10:50:41;;;;;;;8.55;6.53;;;;;;;8.10;100.00;100494.69;5045776;28;20048;-65
2020/12/13 10:53:27;;;;;;;7.85;6.05;;;;;;;7.35;100.00;100490.22;5032078;28;20029;-65
2020/12/13 10:56:14;;;;;;;7.38;6.05;;;;;;;8.16;100.00;100486.81;5031731;28;20048;-66
2020/12/13 10:58:59;;;;;;;8.85;7.00;;;;;;;7.96;100.00;100478.34;5031902;28;20036;-64
2020/12/13 11:01:48;;;;;;;9.88;7.50;;;;;;;8.08;100.00;100484.25;5021391;28;20037;-65
2020/12/13 11:04:33;;;;;;;10.18;7.65;;;;;;;8.22;100.00;100489.34;5036031;28;20430;-64
2020/12/13 11:07:19;;;;;;;10.00;7.72;;;;;;;7.66;100.00;100495.16;5035767;28;20073;-66
2020/12/13 11:10:04;;;;;;;9.95;6.82;;;;;;;7.92;100.00;100500.09;5035950;28;20049;-66
2020/12/13 11:12:49;;;;;;;13.57;8.90;;;;;;;7.47;100.00;100504.00;5021764;28;20044;-65
2020/12/13 11:15:35;;;;;;;43.03;20.52;;;;;;;8.23;100.00;100506.72;5035416;28;20044;-65
2020/12/13 11:18:20;;;;;;;10.23;7.47;;;;;;;8.05;100.00;100505.19;5035785;28;20123;-65
2020/12/13 11:21:05;;;;;;;9.20;7.03;;;;;;;8.13;100.00;100507.69;5035337;28;20048;-65
2020/12/13 11:23:51;;;;;;;7.97;6.80;;;;;;;8.44;100.00;100509.13;5021576;28;20049;-65
2020/12/13 11:26:36;;;;;;;7.95;6.60;;;;;;;7.87;100.00;100507.09;5021190;28;20103;-65
2020/12/13 11:29:22;;;;;;;8.32;6.93;;;;;;;8.28;100.00;100512.78;5021472;28;20032;-66
2020/12/13 11:32:07;;;;;;;9.18;7.47;;;;;;;8.28;100.00;100505.81;5034840;28;20037;-64
2020/12/13 11:34:53;;;;;;;8.65;7.43;;;;;;;8.17;100.00;100506.78;5021569;28;20044;-65
2020/12/13 11:37:39;;;;;;;9.65;7.70;;;;;;;8.13;100.00;100510.31;5035059;28;20128;-65
2020/12/13 11:40:24;;;;;;;10.18;8.18;;;;;;;7.78;100.00;100517.63;5034990;28;20029;-66
2020/12/13 11:43:10;;;;;;;8.02;7.03;;;;;;;8.06;100.00;100519.94;5021906;28;20025;-66
2020/12/13 11:45:55;;;;;;;8.90;7.47;;;;;;;8.16;100.00;100518.13;5034882;28;20102;-65
2020/12/13 11:48:40;;;;;;;11.45;8.40;;;;;;;7.93;100.00;100526.19;5034990;28;20044;-64
2020/12/13 11:51:26;;;;;;;9.85;8.07;;;;;;;8.43;100.00;100528.25;5034662;28;20048;-65
2020/12/13 11:54:13;;;;;;;10.43;7.45;;;;;;;7.67;100.00;100541.19;5034630;28;20124;-66
2020/12/13 11:56:59;;;;;;;11.60;8.57;;;;;;;8.15;100.00;100534.63;5034884;28;20036;-66
2020/12/13 11:59:44;;;;;;;9.25;7.18;;;;;;;8.32;100.00;100532.75;5034701;28;20048;-65
2020/12/13 12:02:30;;;;;;;8.40;7.47;;;;;;;8.60;100.00;100531.53;5034258;28;20061;-65
2020/12/13 12:05:15;;;;;;;10.23;8.63;;;;;;;8.72;100.00;100529.63;5034596;28;20102;-66
2020/12/13 12:08:01;;;;;;;11.45;9.52;;;;;;;7.82;100.00;100530.63;5033965;28;20069;-66
2020/12/13 12:10:47;;;;;;;11.35;9.10;;;;;;;8.17;100.00;100543.31;5033578;28;20039;-66
2020/12/13 12:13:32;;;;;;;10.45;8.15;;;;;;;8.38;100.00;100535.28;5033905;28;20037;-66
2020/12/13 12:16:27;;;;;;;10.30;7.78;;;;;;;7.82;100.00;100540.19;5033475;28;20464;-65
2020/12/13 12:19:13;;;;;;;10.57;8.48;;;;;;;8.32;100.00;100540.59;5034092;28;20426;-66
2020/12/13 12:21:58;;;;;;;11.10;8.32;;;;;;;8.15;100.00;100545.06;5033174;28;20459;-65
2020/12/13 12:24:44;;;;;;;10.60;7.95;;;;;;;8.50;100.00;100537.75;5047801;28;20107;-65
2020/12/13 12:27:29;;;;;;;10.02;7.78;;;;;;;8.23;100.00;100545.88;5033431;28;20408;-65
2020/12/13 12:30:15;;;;;;;10.23;7.97;;;;;;;7.95;100.00;100544.41;5033514;28;20121;-66
2020/12/13 12:33:03;;;;;;;10.50;8.00;;;;;;;8.35;100.00;100537.91;5047349;28;20033;-66
2020/12/13 12:35:48;;;;;;;12.90;9.38;;;;;;;8.07;100.00;100545.16;5033791;28;20068;-65
2020/12/13 12:38:34;;;;;;;11.75;9.60;;;;;;;7.75;100.00;100552.41;5033645;28;20494;-68
2020/12/13 12:41:21;;;;;;;12.23;9.98;;;;;;;8.07;100.00;100559.94;5046972;28;20404;-65
2020/12/13 12:44:06;;;;;;;14.45;11.05;;;;;;;8.24;100.00;100565.91;5033170;28;20489;-65
2020/12/13 12:46:52;;;;;;;14.20;10.95;;;;;;;7.98;100.00;100567.84;5019289;28;20034;-65
2020/12/13 12:49:37;;;;;;;14.02;10.90;;;;;;;8.04;100.00;100578.25;5019751;28;20045;-65
2020/12/13 12:52:23;;;;;;;13.55;10.38;;;;;;;7.76;100.00;100577.59;5046676;28;20033;-66